createdAt,value
2023-08-17T00:00:31.466Z,1003.10
2023-08-17T00:01:31.588Z,1003.08
2023-08-17T00:02:31.630Z,1003.10
2023-08-17T00:03:31.742Z,1003.11
2023-08-17T00:04:31.776Z,1003.07
2023-08-17T00:05:31.841Z,1003.08
2023-08-17T00:06:31.919Z,1003.09
2023-08-17T00:07:32.008Z,1003.09
2023-08-17T00:08:32.108Z,1003.10
2023-08-17T00:09:32.143Z,1003.11
2023-08-17T00:10:32.224Z,1003.11
2023-08-17T00:11:32.328Z,1003.17
2023-08-17T00:12:32.401Z,1003.15
2023-08-17T00:13:32.432Z,1003.17
2023-08-17T00:14:32.510Z,1003.13
2023-08-17T00:15:32.595Z,1003.15
2023-08-17T00:16:32.717Z,1003.16
2023-08-17T00:17:32.774Z,1003.15
2023-08-17T00:18:32.820Z,1003.16
2023-08-17T00:19:32.911Z,1003.14
2023-08-17T00:20:32.977Z,1003.15
2023-08-17T00:21:33.037Z,1003.16
2023-08-17T00:22:33.139Z,1003.15
2023-08-17T00:23:33.197Z,1003.16
2023-08-17T00:24:33.282Z,1003.14
2023-08-17T00:25:33.383Z,1003.18
2023-08-17T00:26:33.446Z,1003.16
2023-08-17T00:27:33.564Z,1003.21
2023-08-17T00:28:33.608Z,1003.20
2023-08-17T00:29:33.705Z,1003.21
2023-08-17T00:30:33.772Z,1003.25
2023-08-17T00:31:33.876Z,1003.19
2023-08-17T00:32:33.964Z,1003.25
2023-08-17T00:33:34.009Z,1003.28
2023-08-17T00:34:34.102Z,1003.30
2023-08-17T00:35:34.176Z,1003.32
2023-08-17T00:36:34.261Z,1003.32
2023-08-17T00:37:34.364Z,1003.34
2023-08-17T00:38:34.442Z,1003.35
2023-08-17T00:39:34.522Z,1003.38
2023-08-17T00:40:34.635Z,1003.36
2023-08-17T00:41:34.695Z,1003.36
2023-08-17T00:42:34.775Z,1003.34
2023-08-17T00:43:34.854Z,1003.37
2023-08-17T00:44:34.925Z,1003.39
2023-08-17T00:45:35.008Z,1003.37
2023-08-17T00:46:35.098Z,1003.38
2023-08-17T00:47:35.259Z,1003.38
2023-08-17T00:48:35.289Z,1003.35
2023-08-17T00:49:35.331Z,1003.34
2023-08-17T00:50:35.400Z,1003.35
2023-08-17T00:51:35.474Z,1003.32
2023-08-17T00:52:35.556Z,1003.30
2023-08-17T00:53:35.595Z,1003.30
2023-08-17T00:54:35.675Z,1003.27
2023-08-17T00:55:35.760Z,1003.32
2023-08-17T00:56:35.812Z,1003.31
2023-08-17T00:57:35.919Z,1003.29
2023-08-17T00:58:35.989Z,1003.32
2023-08-17T00:59:37.206Z,1003.29
2023-08-17T01:00:36.154Z,1003.31
2023-08-17T01:01:36.246Z,1003.27
2023-08-17T01:02:36.344Z,1003.25
2023-08-17T01:03:36.391Z,1003.27
2023-08-17T01:04:36.493Z,1003.26
2023-08-17T01:05:36.552Z,1003.23
2023-08-17T01:06:36.622Z,1003.25
2023-08-17T01:07:36.715Z,1003.24
2023-08-17T01:08:36.788Z,1003.23
2023-08-17T01:09:36.864Z,1003.19
2023-08-17T01:10:36.941Z,1003.20
2023-08-17T01:11:37.045Z,1003.22
2023-08-17T01:12:37.138Z,1003.22
2023-08-17T01:13:37.199Z,1003.19
2023-08-17T01:14:37.272Z,1003.18
2023-08-17T01:15:37.413Z,1003.12
2023-08-17T01:16:37.425Z,1003.16
2023-08-17T01:17:37.534Z,1003.17
2023-08-17T01:18:37.655Z,1003.18
2023-08-17T01:19:37.683Z,1003.19
2023-08-17T01:20:37.758Z,1003.12
2023-08-17T01:21:37.838Z,1003.17
2023-08-17T01:22:37.923Z,1003.15
2023-08-17T01:23:37.975Z,1003.16
2023-08-17T01:24:38.045Z,1003.12
2023-08-17T01:25:38.120Z,1003.12
2023-08-17T01:26:38.193Z,1003.08
2023-08-17T01:27:38.289Z,1003.04
2023-08-17T01:28:38.351Z,1003.00
2023-08-17T01:29:38.426Z,1002.97
2023-08-17T01:30:38.508Z,1002.95
2023-08-17T01:31:38.643Z,1002.91
2023-08-17T01:32:38.730Z,1002.90
2023-08-17T01:33:38.729Z,1002.95
2023-08-17T01:34:38.796Z,1002.94
2023-08-17T01:35:38.864Z,1002.94
2023-08-17T01:36:38.970Z,1002.95
2023-08-17T01:37:39.024Z,1002.96
2023-08-17T01:38:39.118Z,1002.98
2023-08-17T01:39:39.186Z,1003.01
2023-08-17T01:40:39.264Z,1003.02
2023-08-17T01:41:39.342Z,1003.02
2023-08-17T01:42:39.450Z,1003.05
2023-08-17T01:43:39.535Z,1003.06
2023-08-17T01:44:39.623Z,1003.07
2023-08-17T01:45:39.690Z,1003.06
2023-08-17T01:46:39.791Z,1003.06
2023-08-17T01:47:39.918Z,1003.08
2023-08-17T01:48:39.946Z,1003.06
2023-08-17T01:49:40.049Z,1003.08
2023-08-17T01:50:40.148Z,1003.07
2023-08-17T01:51:40.234Z,1003.06
2023-08-17T01:52:40.313Z,1003.11
2023-08-17T01:53:40.379Z,1003.09
2023-08-17T01:54:40.450Z,1003.11
2023-08-17T01:55:40.546Z,1003.11
2023-08-17T01:56:40.610Z,1003.13
2023-08-17T01:57:40.711Z,1003.13
2023-08-17T01:58:40.786Z,1003.19
2023-08-17T01:59:40.877Z,1003.13
2023-08-17T02:00:40.977Z,1003.20
2023-08-17T02:01:41.005Z,1003.19
2023-08-17T02:02:41.198Z,1003.15
2023-08-17T02:03:41.204Z,1003.15
2023-08-17T02:04:41.291Z,1003.17
2023-08-17T02:05:41.373Z,1003.12
2023-08-17T02:06:41.471Z,1003.15
2023-08-17T02:07:41.591Z,1003.14
2023-08-17T02:08:41.626Z,1003.14
2023-08-17T02:09:41.723Z,1003.19
2023-08-17T02:10:41.803Z,1003.17
2023-08-17T02:11:41.900Z,1003.19
2023-08-17T02:12:42.008Z,1003.23
2023-08-17T02:13:42.055Z,1003.17
2023-08-17T02:14:42.145Z,1003.19
2023-08-17T02:15:42.238Z,1003.21
2023-08-17T02:16:42.345Z,1003.17
2023-08-17T02:17:42.432Z,1003.18
2023-08-17T02:18:42.498Z,1003.20
2023-08-17T02:19:42.578Z,1003.18
2023-08-17T02:20:42.652Z,1003.18
2023-08-17T02:21:42.742Z,1003.17
2023-08-17T02:22:42.830Z,1003.16
2023-08-17T02:23:42.905Z,1003.16
2023-08-17T02:24:43.011Z,1003.13
2023-08-17T02:25:43.085Z,1003.13
2023-08-17T02:26:43.177Z,1003.11
2023-08-17T02:27:43.261Z,1003.10
2023-08-17T02:28:43.304Z,1003.09
2023-08-17T02:29:43.377Z,1003.08
2023-08-17T02:30:43.502Z,1003.05
2023-08-17T02:31:43.565Z,1003.06
2023-08-17T02:32:43.681Z,1003.05
2023-08-17T02:33:43.721Z,1003.03
2023-08-17T02:34:43.794Z,1002.99
2023-08-17T02:35:43.965Z,1002.97
2023-08-17T02:36:43.966Z,1002.97
2023-08-17T02:37:44.061Z,1002.96
2023-08-17T02:38:44.144Z,1002.94
2023-08-17T02:39:44.216Z,1002.93
2023-08-17T02:40:44.360Z,1002.91
2023-08-17T02:41:44.381Z,1002.90
2023-08-17T02:42:44.481Z,1002.88
2023-08-17T02:43:44.552Z,1002.87
2023-08-17T02:44:44.612Z,1002.84
2023-08-17T02:45:44.702Z,1002.87
2023-08-17T02:46:44.782Z,1002.81
2023-08-17T02:47:44.871Z,1002.83
2023-08-17T02:48:44.945Z,1002.79
2023-08-17T02:49:45.028Z,1002.83
2023-08-17T02:50:45.088Z,1002.79
2023-08-17T02:51:45.189Z,1002.83
2023-08-17T02:52:45.291Z,1002.80
2023-08-17T02:53:45.334Z,1002.79
2023-08-17T02:54:45.420Z,1002.82
2023-08-17T02:55:45.494Z,1002.83
2023-08-17T02:56:45.584Z,1002.86
2023-08-17T02:57:45.662Z,1002.87
2023-08-17T02:58:45.764Z,1002.83
2023-08-17T02:59:45.838Z,1002.84
2023-08-17T03:00:45.921Z,1002.85
2023-08-17T03:01:46.023Z,1002.80
2023-08-17T03:02:46.233Z,1002.76
2023-08-17T03:03:46.207Z,1002.80
2023-08-17T03:04:46.290Z,1002.79
2023-08-17T03:05:46.338Z,1002.76
2023-08-17T03:06:46.426Z,1002.74
2023-08-17T03:07:46.516Z,1002.78
2023-08-17T03:08:46.592Z,1002.77
2023-08-17T03:09:46.666Z,1002.69
2023-08-17T03:10:46.766Z,1002.67
2023-08-17T03:11:46.857Z,1002.69
2023-08-17T03:12:46.968Z,1002.69
2023-08-17T03:13:47.023Z,1002.73
2023-08-17T03:14:47.114Z,1002.73
2023-08-17T03:15:47.205Z,1002.75
2023-08-17T03:16:47.314Z,1002.68
2023-08-17T03:17:47.444Z,1002.67
2023-08-17T03:18:47.463Z,1002.67
2023-08-17T03:19:47.555Z,1002.65
2023-08-17T03:20:47.630Z,1002.69
2023-08-17T03:21:47.720Z,1002.65
2023-08-17T03:22:47.827Z,1002.67
2023-08-17T03:23:47.899Z,1002.65
2023-08-17T03:24:47.992Z,1002.68
2023-08-17T03:25:48.082Z,1002.65
2023-08-17T03:26:48.182Z,1002.67
2023-08-17T03:27:48.279Z,1002.66
2023-08-17T03:28:48.360Z,1002.65
2023-08-17T03:29:48.452Z,1002.62
2023-08-17T03:30:48.555Z,1002.60
2023-08-17T03:31:48.623Z,1002.63
2023-08-17T03:32:48.780Z,1002.63
2023-08-17T03:33:48.793Z,1002.63
2023-08-17T03:34:48.932Z,1002.67
2023-08-17T03:35:48.984Z,1002.66
2023-08-17T03:36:49.072Z,1002.67
2023-08-17T03:37:49.176Z,1002.67
2023-08-17T03:38:49.258Z,1002.70
2023-08-17T03:39:49.347Z,1002.72
2023-08-17T03:40:49.432Z,1002.74
2023-08-17T03:41:49.510Z,1002.75
2023-08-17T03:42:49.638Z,1002.77
2023-08-17T03:43:49.649Z,1002.77
2023-08-17T03:44:49.735Z,1002.78
2023-08-17T03:45:49.829Z,1002.79
2023-08-17T03:46:49.884Z,1002.82
2023-08-17T03:47:50.017Z,1002.83
2023-08-17T03:48:50.048Z,1002.76
2023-08-17T03:49:50.129Z,1002.81
2023-08-17T03:50:50.221Z,1002.80
2023-08-17T03:51:50.277Z,1002.77
2023-08-17T03:52:50.367Z,1002.80
2023-08-17T03:53:50.457Z,1002.81
2023-08-17T03:54:50.547Z,1002.77
2023-08-17T03:55:50.654Z,1002.83
2023-08-17T03:56:50.748Z,1002.79
2023-08-17T03:57:50.867Z,1002.81
2023-08-17T03:58:50.910Z,1002.82
2023-08-17T03:59:50.996Z,1002.81
2023-08-17T04:00:51.073Z,1002.82
2023-08-17T04:01:51.200Z,1002.79
2023-08-17T04:02:51.301Z,1002.80
2023-08-17T04:03:51.341Z,1002.77
2023-08-17T04:04:51.461Z,1002.79
2023-08-17T04:05:51.515Z,1002.78
2023-08-17T04:06:51.588Z,1002.77
2023-08-17T04:07:51.652Z,1002.79
2023-08-17T04:08:51.700Z,1002.79
2023-08-17T04:09:51.798Z,1002.82
2023-08-17T04:10:51.862Z,1002.81
2023-08-17T04:11:51.926Z,1002.86
2023-08-17T04:12:52.045Z,1002.85
2023-08-17T04:13:52.094Z,1002.86
2023-08-17T04:14:52.194Z,1002.87
2023-08-17T04:15:52.291Z,1002.87
2023-08-17T04:16:52.388Z,1002.89
2023-08-17T04:17:52.519Z,1002.88
2023-08-17T04:18:52.541Z,1002.91
2023-08-17T04:19:52.589Z,1002.85
2023-08-17T04:20:55.024Z,1002.87
2023-08-17T04:21:52.767Z,1002.89
2023-08-17T04:22:53.102Z,1002.91
2023-08-17T04:23:52.937Z,1002.92
2023-08-17T04:24:53.034Z,1002.92
2023-08-17T04:25:53.101Z,1002.95
2023-08-17T04:26:53.163Z,1003.00
2023-08-17T04:27:53.246Z,1002.94
2023-08-17T04:28:53.289Z,1002.99
2023-08-17T04:29:53.361Z,1002.98
2023-08-17T04:30:53.462Z,1003.01
2023-08-17T04:31:53.581Z,1003.03
2023-08-17T04:32:53.909Z,1003.06
2023-08-17T04:33:53.704Z,1003.08
2023-08-17T04:34:54.866Z,1003.13
2023-08-17T04:35:53.859Z,1003.10
2023-08-17T04:36:53.954Z,1003.14
2023-08-17T04:37:54.039Z,1003.14
2023-08-17T04:38:54.087Z,1003.13
2023-08-17T04:39:54.168Z,1003.16
2023-08-17T04:40:54.264Z,1003.14
2023-08-17T04:41:54.350Z,1003.13
2023-08-17T04:42:54.459Z,1003.14
2023-08-17T04:43:54.493Z,1003.17
2023-08-17T04:44:54.580Z,1003.17
2023-08-17T04:45:54.721Z,1003.20
2023-08-17T04:46:54.766Z,1003.20
2023-08-17T04:47:54.892Z,1003.24
2023-08-17T04:48:54.946Z,1003.24
2023-08-17T04:49:55.009Z,1003.24
2023-08-17T04:50:55.113Z,1003.24
2023-08-17T04:51:55.229Z,1003.24
2023-08-17T04:52:55.322Z,1003.26
2023-08-17T04:53:55.376Z,1003.29
2023-08-17T04:54:55.432Z,1003.29
2023-08-17T04:55:55.522Z,1003.34
2023-08-17T04:56:55.612Z,1003.35
2023-08-17T04:57:55.721Z,1003.36
2023-08-17T04:58:55.774Z,1003.38
2023-08-17T04:59:55.871Z,1003.41
2023-08-17T05:00:55.960Z,1003.39
2023-08-17T05:01:56.005Z,1003.39
2023-08-17T05:02:56.153Z,1003.36
2023-08-17T05:03:56.200Z,1003.39
2023-08-17T05:04:56.233Z,1003.39
2023-08-17T05:05:56.315Z,1003.37
2023-08-17T05:06:56.395Z,1003.39
2023-08-17T05:07:56.476Z,1003.37
2023-08-17T05:08:56.561Z,1003.39
2023-08-17T05:09:56.642Z,1003.41
2023-08-17T05:10:56.864Z,1003.40
2023-08-17T05:11:56.805Z,1003.40
2023-08-17T05:12:56.928Z,1003.38
2023-08-17T05:13:56.961Z,1003.40
2023-08-17T05:14:57.041Z,1003.36
2023-08-17T05:15:57.149Z,1003.39
2023-08-17T05:16:57.213Z,1003.37
2023-08-17T05:17:57.328Z,1003.36
2023-08-17T05:18:57.410Z,1003.36
2023-08-17T05:19:57.465Z,1003.31
2023-08-17T05:20:57.575Z,1003.33
2023-08-17T05:21:57.662Z,1003.31
2023-08-17T05:22:57.784Z,1003.32
2023-08-17T05:23:57.813Z,1003.31
2023-08-17T05:24:57.913Z,1003.31
2023-08-17T05:25:57.970Z,1003.31
2023-08-17T05:26:58.079Z,1003.30
2023-08-17T05:27:58.183Z,1003.28
2023-08-17T05:28:58.372Z,1003.26
2023-08-17T05:29:58.374Z,1003.27
2023-08-17T05:30:58.456Z,1003.29
2023-08-17T05:31:58.510Z,1003.34
2023-08-17T05:32:58.647Z,1003.30
2023-08-17T05:33:58.664Z,1003.36
2023-08-17T05:34:58.762Z,1003.36
2023-08-17T05:35:58.832Z,1003.39
2023-08-17T05:36:58.938Z,1003.40
2023-08-17T05:37:59.057Z,1003.40
2023-08-17T05:38:59.096Z,1003.42
2023-08-17T05:39:59.185Z,1003.41
2023-08-17T05:40:59.286Z,1003.41
2023-08-17T05:41:59.358Z,1003.42
2023-08-17T05:42:59.475Z,1003.44
2023-08-17T05:43:59.524Z,1003.41
2023-08-17T05:44:59.621Z,1003.38
2023-08-17T05:45:59.715Z,1003.40
2023-08-17T05:46:59.810Z,1003.44
2023-08-17T05:47:59.950Z,1003.40
2023-08-17T05:48:59.936Z,1003.40
2023-08-17T05:50:00.057Z,1003.45
2023-08-17T05:51:00.113Z,1003.44
2023-08-17T05:52:00.202Z,1003.44
2023-08-17T05:53:00.316Z,1003.41
2023-08-17T05:54:00.362Z,1003.49
2023-08-17T05:55:00.474Z,1003.48
2023-08-17T05:56:00.529Z,1003.50
2023-08-17T05:57:00.712Z,1003.53
2023-08-17T05:58:00.732Z,1003.57
2023-08-17T05:59:00.812Z,1003.54
2023-08-17T06:00:00.878Z,1003.58
2023-08-17T06:01:00.981Z,1003.59
2023-08-17T06:02:01.026Z,1003.57
2023-08-17T06:03:01.207Z,1003.62
2023-08-17T06:04:01.215Z,1003.58
2023-08-17T06:05:01.307Z,1003.59
2023-08-17T06:06:01.393Z,1003.59
2023-08-17T06:07:01.459Z,1003.60
2023-08-17T06:08:01.557Z,1003.61
2023-08-17T06:09:01.602Z,1003.58
2023-08-17T06:10:01.699Z,1003.63
2023-08-17T06:11:01.763Z,1003.64
2023-08-17T06:12:01.842Z,1003.61
2023-08-17T06:13:01.947Z,1003.61
2023-08-17T06:14:02.012Z,1003.58
2023-08-17T06:15:02.074Z,1003.66
2023-08-17T06:16:02.171Z,1003.63
2023-08-17T06:17:02.252Z,1003.62
2023-08-17T06:18:02.455Z,1003.65
2023-08-17T06:19:02.395Z,1003.65
2023-08-17T06:20:02.484Z,1003.67
2023-08-17T06:21:02.586Z,1003.64
2023-08-17T06:22:02.664Z,1003.64
2023-08-17T06:23:02.760Z,1003.63
2023-08-17T06:24:02.862Z,1003.64
2023-08-17T06:25:02.915Z,1003.61
2023-08-17T06:26:03.022Z,1003.62
2023-08-17T06:27:03.126Z,1003.63
2023-08-17T06:28:03.211Z,1003.62
2023-08-17T06:29:04.456Z,1003.60
2023-08-17T06:30:03.323Z,1003.63
2023-08-17T06:31:03.471Z,1003.62
2023-08-17T06:32:03.487Z,1003.64
2023-08-17T06:33:03.621Z,1003.60
2023-08-17T06:34:03.643Z,1003.58
2023-08-17T06:35:03.729Z,1003.59
2023-08-17T06:36:03.812Z,1003.58
2023-08-17T06:37:03.905Z,1003.57
2023-08-17T06:38:03.996Z,1003.57
2023-08-17T06:39:04.070Z,1003.56
2023-08-17T06:40:04.150Z,1003.57
2023-08-17T06:41:04.226Z,1003.59
2023-08-17T06:42:04.316Z,1003.61
2023-08-17T06:43:04.407Z,1003.57
2023-08-17T06:44:04.496Z,1003.57
2023-08-17T06:45:04.564Z,1003.58
2023-08-17T06:46:04.666Z,1003.61
2023-08-17T06:47:04.735Z,1003.58
2023-08-17T06:48:04.851Z,1003.61
2023-08-17T06:49:04.857Z,1003.57
2023-08-17T06:50:04.968Z,1003.58
2023-08-17T06:51:05.033Z,1003.54
2023-08-17T06:52:05.107Z,1003.54
2023-08-17T06:53:05.206Z,1003.57
2023-08-17T06:54:05.271Z,1003.63
2023-08-17T06:55:05.337Z,1003.63
2023-08-17T06:56:05.442Z,1003.59
2023-08-17T06:57:05.516Z,1003.60
2023-08-17T06:58:05.596Z,1003.60
2023-08-17T06:59:05.645Z,1003.64
2023-08-17T07:00:05.723Z,1003.60
2023-08-17T07:01:05.801Z,1003.57
2023-08-17T07:02:05.936Z,1003.59
2023-08-17T07:03:06.069Z,1003.59
2023-08-17T07:04:06.068Z,1003.61
2023-08-17T07:05:06.155Z,1003.64
2023-08-17T07:06:06.255Z,1003.65
2023-08-17T07:07:06.350Z,1003.65
2023-08-17T07:08:06.467Z,1003.65
2023-08-17T07:09:06.657Z,1003.68
2023-08-17T07:10:06.614Z,1003.66
2023-08-17T07:11:06.712Z,1003.68
2023-08-17T07:12:06.807Z,1003.65
2023-08-17T07:13:06.918Z,1003.67
2023-08-17T07:14:06.958Z,1003.68
2023-08-17T07:15:07.018Z,1003.67
2023-08-17T07:16:07.138Z,1003.68
2023-08-17T07:17:07.207Z,1003.70
2023-08-17T07:18:07.354Z,1003.70
2023-08-17T07:19:07.353Z,1003.73
2023-08-17T07:20:16.333Z,1003.73
2023-08-17T07:21:07.510Z,1003.75
2023-08-17T07:22:07.583Z,1003.75
2023-08-17T07:23:07.684Z,1003.78
2023-08-17T07:24:07.744Z,1003.73
2023-08-17T07:25:07.839Z,1003.77
2023-08-17T07:26:08.277Z,1003.82
2023-08-17T07:27:08.018Z,1003.82
2023-08-17T07:28:08.131Z,1003.86
2023-08-17T07:29:08.171Z,1003.91
2023-08-17T07:30:08.303Z,1003.89
2023-08-17T07:31:08.322Z,1003.88
2023-08-17T07:32:08.468Z,1003.92
2023-08-17T07:33:08.566Z,1003.89
2023-08-17T07:34:08.591Z,1003.93
2023-08-17T07:35:08.684Z,1003.93
2023-08-17T07:36:08.765Z,1003.97
2023-08-17T07:37:08.854Z,1003.98
2023-08-17T07:38:09.816Z,1003.95
2023-08-17T07:39:09.016Z,1003.99
2023-08-17T07:40:09.108Z,1004.01
2023-08-17T07:41:09.205Z,1004.03
2023-08-17T07:42:09.339Z,1004.00
2023-08-17T07:43:09.412Z,1003.98
2023-08-17T07:44:09.453Z,1003.99
2023-08-17T07:45:09.532Z,1003.95
2023-08-17T07:46:09.736Z,1004.01
2023-08-17T07:47:09.692Z,1003.94
2023-08-17T07:48:09.830Z,1003.91
2023-08-17T07:49:15.927Z,1003.91
2023-08-17T07:50:09.990Z,1003.93
2023-08-17T07:51:09.994Z,1003.93
2023-08-17T07:52:10.069Z,1003.96
2023-08-17T07:53:10.176Z,1003.95
2023-08-17T07:54:10.229Z,1003.99
2023-08-17T07:55:10.298Z,1003.93
2023-08-17T07:56:10.390Z,1004.00
2023-08-17T07:57:10.472Z,1003.92
2023-08-17T07:58:10.582Z,1003.97
2023-08-17T07:59:10.705Z,1003.95
2023-08-17T08:00:10.757Z,1003.95
2023-08-17T08:01:10.895Z,1003.96
2023-08-17T08:02:10.900Z,1003.94
2023-08-17T08:03:11.076Z,1003.90
2023-08-17T08:04:11.077Z,1003.92
2023-08-17T08:05:11.184Z,1003.94
2023-08-17T08:06:11.224Z,1003.93
2023-08-17T08:07:11.311Z,1003.95
2023-08-17T08:08:11.406Z,1003.94
2023-08-17T08:09:11.484Z,1003.91
2023-08-17T08:10:11.571Z,1003.96
2023-08-17T08:11:11.646Z,1003.98
2023-08-17T08:12:11.726Z,1003.97
2023-08-17T08:13:11.817Z,1004.00
2023-08-17T08:14:11.896Z,1004.02
2023-08-17T08:15:11.983Z,1004.01
2023-08-17T08:16:12.090Z,1004.01
2023-08-17T08:17:12.134Z,1004.02
2023-08-17T08:18:12.302Z,1004.01
2023-08-17T08:19:12.275Z,1003.97
2023-08-17T08:20:12.355Z,1003.99
2023-08-17T08:21:12.424Z,1003.95
2023-08-17T08:22:12.515Z,1003.95
2023-08-17T08:23:12.605Z,1003.98
2023-08-17T08:24:22.411Z,1003.95
2023-08-17T08:25:12.756Z,1003.99
2023-08-17T08:26:12.844Z,1003.94
2023-08-17T08:27:12.903Z,1003.97
2023-08-17T08:28:12.989Z,1003.88
2023-08-17T08:29:13.064Z,1003.90
2023-08-17T08:30:13.188Z,1003.94
2023-08-17T08:31:13.380Z,1003.89
2023-08-17T08:32:13.317Z,1003.88
2023-08-17T08:33:13.859Z,1003.92
2023-08-17T08:34:13.465Z,1003.87
2023-08-17T08:35:13.538Z,1003.91
2023-08-17T08:36:13.723Z,1003.87
2023-08-17T08:37:13.694Z,1003.84
2023-08-17T08:38:13.757Z,1003.83
2023-08-17T08:39:13.876Z,1003.82
2023-08-17T08:40:13.936Z,1003.80
2023-08-17T08:41:14.058Z,1003.78
2023-08-17T08:42:14.109Z,1003.79
2023-08-17T08:43:14.209Z,1003.80
2023-08-17T08:44:14.308Z,1003.85
2023-08-17T08:45:14.375Z,1003.84
2023-08-17T08:46:14.545Z,1003.86
2023-08-17T08:47:14.540Z,1003.80
2023-08-17T08:48:14.694Z,1003.83
2023-08-17T08:49:14.701Z,1003.83
2023-08-17T08:50:14.770Z,1003.84
2023-08-17T08:51:14.862Z,1003.85
2023-08-17T08:52:14.960Z,1003.80
2023-08-17T08:53:15.055Z,1003.83
2023-08-17T08:54:15.200Z,1003.85
2023-08-17T08:55:15.253Z,1003.85
2023-08-17T08:56:15.381Z,1003.85
2023-08-17T08:57:15.417Z,1003.85
2023-08-17T08:58:15.513Z,1003.82
2023-08-17T08:59:15.599Z,1003.83
2023-08-17T09:00:15.655Z,1003.82
2023-08-17T09:01:15.792Z,1003.84
2023-08-17T09:02:15.816Z,1003.75
2023-08-17T09:03:15.934Z,1003.78
2023-08-17T09:04:15.994Z,1003.81
2023-08-17T09:05:16.064Z,1003.78
2023-08-17T09:06:16.149Z,1003.78
2023-08-17T09:07:16.234Z,1003.76
2023-08-17T09:08:17.857Z,1003.76
2023-08-17T09:09:16.417Z,1003.76
2023-08-17T09:10:16.465Z,1003.76
2023-08-17T09:11:16.550Z,1003.75
2023-08-17T09:12:23.421Z,1003.75
2023-08-17T09:13:16.721Z,1003.75
2023-08-17T09:14:16.821Z,1003.72
2023-08-17T09:15:16.863Z,1003.72
2023-08-17T09:16:16.981Z,1003.70
2023-08-17T09:17:19.618Z,1003.71
2023-08-17T09:18:17.188Z,1003.69
2023-08-17T09:19:17.227Z,1003.72
2023-08-17T09:20:17.275Z,1003.72
2023-08-17T09:21:17.371Z,1003.76
2023-08-17T09:22:17.466Z,1003.72
2023-08-17T09:23:17.627Z,1003.75
2023-08-17T09:24:17.651Z,1003.74
2023-08-17T09:25:17.703Z,1003.75
2023-08-17T09:26:17.839Z,1003.74
2023-08-17T09:27:17.884Z,1003.77
2023-08-17T09:28:17.950Z,1003.72
2023-08-17T09:29:18.080Z,1003.72
2023-08-17T09:30:19.579Z,1003.69
2023-08-17T09:31:18.268Z,1003.68
2023-08-17T09:32:18.278Z,1003.68
2023-08-17T09:33:18.327Z,1003.69
2023-08-17T09:34:18.404Z,1003.67
2023-08-17T09:35:18.500Z,1003.64
2023-08-17T09:36:18.575Z,1003.63
2023-08-17T09:37:18.670Z,1003.66
2023-08-17T09:38:18.741Z,1003.67
2023-08-17T09:39:18.847Z,1003.68
2023-08-17T09:40:22.231Z,1003.67
2023-08-17T09:41:19.000Z,1003.67
2023-08-17T09:42:19.069Z,1003.67
2023-08-17T09:43:19.209Z,1003.67
2023-08-17T09:44:19.239Z,1003.63
2023-08-17T09:45:19.296Z,1003.62
2023-08-17T09:46:19.394Z,1003.63
2023-08-17T09:47:19.457Z,1003.59
2023-08-17T09:48:19.539Z,1003.60
2023-08-17T09:49:19.665Z,1003.53
2023-08-17T09:50:19.684Z,1003.48
2023-08-17T09:51:19.774Z,1003.49
2023-08-17T09:52:19.856Z,1003.44
2023-08-17T09:53:19.979Z,1003.45
2023-08-17T09:54:20.048Z,1003.46
2023-08-17T09:55:20.138Z,1003.49
2023-08-17T09:56:20.212Z,1003.52
2023-08-17T09:57:22.818Z,1003.50
2023-08-17T09:58:20.387Z,1003.51
2023-08-17T09:59:20.510Z,1003.51
2023-08-17T10:00:20.538Z,1003.54
2023-08-17T10:01:20.657Z,1003.55
2023-08-17T10:02:20.687Z,1003.59
2023-08-17T10:03:21.184Z,1003.57
2023-08-17T10:04:20.883Z,1003.56
2023-08-17T10:05:22.663Z,1003.58
2023-08-17T10:06:26.839Z,1003.56
2023-08-17T10:07:21.156Z,1003.54
2023-08-17T10:08:21.241Z,1003.49
2023-08-17T10:09:21.338Z,1003.46
2023-08-17T10:10:21.405Z,1003.50
2023-08-17T10:11:21.484Z,1003.52
2023-08-17T10:12:21.595Z,1003.49
2023-08-17T10:13:21.659Z,1003.49
2023-08-17T10:14:21.774Z,1003.49
2023-08-17T10:15:21.938Z,1003.44
2023-08-17T10:16:21.886Z,1003.50
2023-08-17T10:17:21.961Z,1003.49
2023-08-17T10:18:22.039Z,1003.50
2023-08-17T10:19:22.152Z,1003.47
2023-08-17T10:20:22.216Z,1003.49
2023-08-17T10:21:22.279Z,1003.45
2023-08-17T10:22:22.349Z,1003.48
2023-08-17T10:23:22.402Z,1003.47
2023-08-17T10:24:22.531Z,1003.49
2023-08-17T10:25:22.586Z,1003.45
2023-08-17T10:26:22.729Z,1003.49
2023-08-17T10:27:22.749Z,1003.47
2023-08-17T10:28:22.847Z,1003.47
2023-08-17T10:29:22.915Z,1003.45
2023-08-17T10:30:22.976Z,1003.47
2023-08-17T10:31:23.111Z,1003.48
2023-08-17T10:32:23.116Z,1003.50
2023-08-17T10:33:23.210Z,1003.56
2023-08-17T10:34:23.334Z,1003.55
2023-08-17T10:35:23.396Z,1003.59
2023-08-17T10:36:23.484Z,1003.60
2023-08-17T10:37:23.567Z,1003.64
2023-08-17T10:38:23.628Z,1003.62
2023-08-17T10:39:27.080Z,1003.62
2023-08-17T10:40:23.782Z,1003.63
2023-08-17T10:41:23.832Z,1003.59
2023-08-17T10:42:23.929Z,1003.63
2023-08-17T10:43:24.022Z,1003.61
2023-08-17T10:44:26.141Z,1003.60
2023-08-17T10:46:24.349Z,1003.60
2023-08-17T10:47:24.382Z,1003.65
2023-08-17T10:48:24.451Z,1003.60
2023-08-17T10:49:24.542Z,1003.64
2023-08-17T10:50:24.601Z,1003.64
2023-08-17T10:51:24.726Z,1003.70
2023-08-17T10:52:25.056Z,1003.71
2023-08-17T10:53:24.880Z,1003.70
2023-08-17T10:54:25.032Z,1003.70
2023-08-17T10:55:25.041Z,1003.70
2023-08-17T10:56:25.126Z,1003.73
2023-08-17T10:57:25.198Z,1003.73
2023-08-17T10:58:25.275Z,1003.73
2023-08-17T10:59:25.387Z,1003.76
2023-08-17T11:00:25.710Z,1003.75
2023-08-17T11:01:25.554Z,1003.73
2023-08-17T11:02:25.644Z,1003.79
2023-08-17T11:04:25.858Z,1003.78
2023-08-17T11:05:25.875Z,1003.80
2023-08-17T11:06:25.925Z,1003.82
2023-08-17T11:07:26.027Z,1003.79
2023-08-17T11:08:26.112Z,1003.79
2023-08-17T11:09:26.174Z,1003.79
2023-08-17T11:10:26.260Z,1003.78
2023-08-17T11:11:26.329Z,1003.81
2023-08-17T11:12:26.522Z,1003.85
2023-08-17T11:13:26.461Z,1003.82
2023-08-17T11:14:26.576Z,1003.81
2023-08-17T11:15:26.598Z,1003.80
2023-08-17T11:16:26.730Z,1003.81
2023-08-17T11:17:26.788Z,1003.79
2023-08-17T11:18:26.829Z,1003.85
2023-08-17T11:19:26.916Z,1003.87
2023-08-17T11:20:26.973Z,1003.84
2023-08-17T11:21:27.072Z,1003.84
2023-08-17T11:22:27.180Z,1003.85
2023-08-17T11:23:27.237Z,1003.81
2023-08-17T11:24:29.126Z,1003.83
2023-08-17T11:26:27.478Z,1003.83
2023-08-17T11:27:27.559Z,1003.80
2023-08-17T11:28:27.641Z,1003.81
2023-08-17T11:29:27.715Z,1003.76
2023-08-17T11:30:27.780Z,1003.73
2023-08-17T11:31:27.912Z,1003.74
2023-08-17T11:32:28.281Z,1003.73
2023-08-17T11:33:28.008Z,1003.69
2023-08-17T11:34:28.105Z,1003.73
2023-08-17T11:35:28.151Z,1003.73
2023-08-17T11:36:28.255Z,1003.73
2023-08-17T11:37:28.363Z,1003.75
2023-08-17T11:38:28.404Z,1003.77
2023-08-17T11:39:28.505Z,1003.78
2023-08-17T11:40:28.554Z,1003.73
2023-08-17T11:41:28.648Z,1003.75
2023-08-17T11:42:29.085Z,1003.76
2023-08-17T11:43:28.826Z,1003.71
2023-08-17T11:44:28.972Z,1003.71
2023-08-17T11:45:29.066Z,1003.70
2023-08-17T11:46:29.883Z,1003.65
2023-08-17T11:47:32.611Z,1003.66
2023-08-17T11:48:29.242Z,1003.68
2023-08-17T11:49:29.351Z,1003.69
2023-08-17T11:50:29.504Z,1003.65
2023-08-17T11:51:29.568Z,1003.65
2023-08-17T11:52:29.782Z,1003.66
2023-08-17T11:53:29.699Z,1003.69
2023-08-17T11:54:29.768Z,1003.71
2023-08-17T11:55:29.851Z,1003.72
2023-08-17T11:56:29.932Z,1003.75
2023-08-17T11:57:30.008Z,1003.73
2023-08-17T11:58:30.196Z,1003.77
2023-08-17T11:59:30.223Z,1003.80
2023-08-17T12:00:30.303Z,1003.77
2023-08-17T12:01:30.433Z,1003.75
2023-08-17T12:02:30.740Z,1003.77
2023-08-17T12:03:30.678Z,1003.77
2023-08-17T12:04:30.624Z,1003.81
2023-08-17T12:05:30.703Z,1003.77
2023-08-17T12:06:30.784Z,1003.76
2023-08-17T12:07:30.924Z,1003.78
2023-08-17T12:08:30.977Z,1003.72
2023-08-17T12:09:31.052Z,1003.76